Time;durP1;ratioP1;P1;durP2;ratioP2;P2;SDS_P1;SDS_P2;PMS_P1;PMS_P2;Temp;Humidity;BMP_temperature;BMP_pressure;BME280_temperature;BME280_humidity;BME280_pressure;Samples;Min_cycle;Max_cycle;Signal;HPM_P1;HPM_P2
2023/06/07 00:00:14;;;;;;;2.30;2.30;;;22.60;65.10;;;;;;5088786;28;43971;-70
2023/06/07 00:02:42;;;;;;;2.30;2.30;;;22.60;65.10;;;;;;5081603;27;45385;-70
2023/06/07 00:05:13;;;;;;;2.40;2.30;;;22.60;65.10;;;;;;5089328;27;43488;-72
2023/06/07 00:07:41;;;;;;;2.10;2.10;;;22.60;65.10;;;;;;5088329;27;43454;-70
2023/06/07 00:10:10;;;;;;;2.00;2.00;;;22.50;64.80;;;;;;5089680;27;43414;-70
2023/06/07 00:12:38;;;;;;;2.10;2.10;;;22.50;65.20;;;;;;5089746;27;43836;-71
2023/06/07 00:15:08;;;;;;;2.07;2.07;;;22.50;65.20;;;;;;5089052;28;43422;-70
2023/06/07 00:17:37;;;;;;;1.90;1.90;;;22.50;65.20;;;;;;5089688;28;43436;-70
2023/06/07 00:20:08;;;;;;;2.20;2.20;;;22.50;65.10;;;;;;5090321;27;43319;-70
2023/06/07 00:22:38;;;;;;;2.00;2.00;;;22.50;65.10;;;;;;5088623;27;43875;-70
2023/06/07 00:25:08;;;;;;;2.20;2.20;;;22.50;65.40;;;;;;5089390;27;43348;-70
2023/06/07 00:27:36;;;;;;;2.10;2.10;;;22.50;65.10;;;;;;5089253;28;43463;-70
2023/06/07 00:30:05;;;;;;;2.10;2.10;;;22.70;64.90;;;;;;5088073;27;43484;-70
2023/06/07 00:32:36;;;;;;;2.23;2.23;;;22.80;64.50;;;;;;5087648;28;46039;-70
2023/06/07 00:35:07;;;;;;;2.20;2.20;;;22.90;64.10;;;;;;5089314;27;43383;-71
2023/06/07 00:37:35;;;;;;;2.00;2.00;;;22.90;63.80;;;;;;5092412;27;43347;-70
2023/06/07 00:40:04;;;;;;;2.00;2.00;;;22.90;64.00;;;;;;5089675;28;43417;-70
2023/06/07 00:42:33;;;;;;;2.23;2.23;;;22.80;64.00;;;;;;5086868;28;43590;-71
2023/06/07 00:45:01;;;;;;;1.87;1.87;;;22.80;64.60;;;;;;5084469;28;44737;-71
2023/06/07 00:47:29;;;;;;;2.10;2.10;;;22.80;64.50;;;;;;5083043;28;43932;-71
2023/06/07 00:49:58;;;;;;;2.03;2.03;;;22.70;64.50;;;;;;5070004;28;43538;-70
2023/06/07 00:52:26;;;;;;;1.80;1.80;;;22.70;64.60;;;;;;5089113;28;43864;-71
2023/06/07 00:54:54;;;;;;;1.97;1.97;;;22.60;64.80;;;;;;5088859;27;43431;-70
2023/06/07 00:57:22;;;;;;;2.03;2.03;;;22.60;64.90;;;;;;5087753;28;43398;-70
2023/06/07 00:59:50;;;;;;;2.03;2.03;;;22.60;64.90;;;;;;5087349;27;43930;-71
2023/06/07 01:02:18;;;;;;;1.80;1.80;;;22.60;65.10;;;;;;5086582;27;43575;-71
2023/06/07 01:04:49;;;;;;;2.10;2.10;;;22.60;64.80;;;;;;5083820;28;44028;-70
2023/06/07 01:07:24;;;;;;;1.90;1.90;;;22.50;65.10;;;;;;5087556;27;43459;-71
2023/06/07 01:09:53;;;;;;;1.87;1.87;;;22.50;65.00;;;;;;5087653;28;43483;-70
2023/06/07 01:12:21;;;;;;;2.00;2.00;;;22.50;65.10;;;;;;5088130;27;44801;-70
2023/06/07 01:14:49;;;;;;;1.90;1.90;;;22.50;64.80;;;;;;5087226;28;44670;-70
2023/06/07 01:17:17;;;;;;;1.73;1.73;;;22.50;65.20;;;;;;5085327;28;43382;-71
2023/06/07 01:19:53;;;;;;;1.80;1.80;;;22.50;65.10;;;;;;5088444;27;44087;-70
2023/06/07 01:22:24;;;;;;;2.00;2.00;;;22.60;64.90;;;;;;5086002;28;45422;-71
2023/06/07 01:24:55;;;;;;;1.70;1.70;;;22.70;64.40;;;;;;5085143;28;43433;-70
2023/06/07 01:27:27;;;;;;;2.00;2.00;;;22.90;64.20;;;;;;5087082;28;43459;-70
2023/06/07 01:29:55;;;;;;;1.77;1.77;;;22.90;64.00;;;;;;5087452;27;43601;-70
2023/06/07 01:32:24;;;;;;;1.93;1.93;;;22.80;63.90;;;;;;5088397;28;43681;-70
2023/06/07 01:34:52;;;;;;;1.80;1.80;;;22.80;64.10;;;;;;5087508;27;43589;-70
2023/06/07 01:37:20;;;;;;;1.80;1.80;;;22.70;64.50;;;;;;5088648;27;43465;-71
2023/06/07 01:39:48;;;;;;;2.00;2.00;;;22.70;64.60;;;;;;5088967;28;44047;-70
2023/06/07 01:42:17;;;;;;;1.70;1.70;;;22.70;64.60;;;;;;5088132;28;43611;-70
2023/06/07 01:44:46;;;;;;;1.90;1.90;;;22.60;64.70;;;;;;5086638;28;45740;-70
2023/06/07 01:47:14;;;;;;;1.90;1.90;;;22.60;64.60;;;;;;5086647;28;43386;-70
2023/06/07 01:49:43;;;;;;;1.80;1.80;;;22.60;65.10;;;;;;5087176;27;43977;-70
2023/06/07 01:52:11;;;;;;;1.90;1.90;;;22.60;64.90;;;;;;5086628;28;46023;-70
2023/06/07 01:54:39;;;;;;;1.80;1.80;;;22.70;64.70;;;;;;5086756;28;45254;-70
2023/06/07 01:57:13;;;;;;;1.93;1.93;;;22.80;64.20;;;;;;5088252;27;43342;-70
2023/06/07 01:59:45;;;;;;;1.80;1.80;;;22.90;64.10;;;;;;5087130;28;43972;-70
2023/06/07 02:02:17;;;;;;;1.60;1.60;;;22.90;64.00;;;;;;5084219;28;45970;-70
2023/06/07 02:04:48;;;;;;;1.53;1.53;;;22.80;63.90;;;;;;5084526;28;43427;-70
2023/06/07 02:07:18;;;;;;;1.53;1.53;;;22.80;64.10;;;;;;5080631;27;43426;-71
2023/06/07 02:09:46;;;;;;;1.80;1.80;;;22.70;64.60;;;;;;5086652;28;43552;-70
2023/06/07 02:12:14;;;;;;;1.70;1.70;;;22.70;64.70;;;;;;5080804;27;44047;-70
2023/06/07 02:14:43;;;;;;;1.90;1.90;;;22.70;64.70;;;;;;5088000;27;43928;-70
2023/06/07 02:17:12;;;;;;;1.80;1.80;;;22.60;64.50;;;;;;5087599;27;43389;-70
2023/06/07 02:19:40;;;;;;;1.90;1.90;;;22.60;64.90;;;;;;5086306;28;44012;-71
2023/06/07 02:22:08;;;;;;;1.80;1.80;;;22.60;65.10;;;;;;5086541;28;43921;-70
2023/06/07 02:24:37;;;;;;;1.70;1.70;;;22.60;65.00;;;;;;5087614;27;43474;-70
2023/06/07 02:27:07;;;;;;;1.70;1.70;;;22.50;64.80;;;;;;5086622;27;43387;-70
2023/06/07 02:29:35;;;;;;;1.60;1.60;;;22.50;64.50;;;;;;5088262;27;43474;-70
2023/06/07 02:32:06;;;;;;;1.73;1.73;;;22.50;65.10;;;;;;5086732;27;43881;-70
2023/06/07 02:34:34;;;;;;;1.70;1.70;;;22.50;65.00;;;;;;5086675;28;43435;-70
2023/06/07 02:37:02;;;;;;;1.70;1.70;;;22.60;64.80;;;;;;5087587;27;43400;-69
2023/06/07 02:39:30;;;;;;;1.80;1.80;;;22.70;64.40;;;;;;5086657;28;43999;-72
2023/06/07 02:41:58;;;;;;;1.83;1.83;;;22.90;64.10;;;;;;5085659;28;45966;-71
2023/06/07 02:44:28;;;;;;;1.70;1.70;;;22.90;63.90;;;;;;5087619;27;43399;-70
2023/06/07 02:46:57;;;;;;;1.60;1.60;;;22.90;64.00;;;;;;5091684;27;43410;-70
2023/06/07 02:49:28;;;;;;;1.67;1.67;;;22.80;64.10;;;;;;5093499;28;44073;-69
2023/06/07 02:51:56;;;;;;;1.67;1.67;;;22.70;64.50;;;;;;5094129;28;43933;-69
2023/06/07 02:54:24;;;;;;;1.73;1.73;;;22.70;64.50;;;;;;5094031;27;43526;-70
2023/06/07 02:56:52;;;;;;;1.70;1.70;;;22.70;65.30;;;;;;5092507;28;43460;-70
2023/06/07 02:59:20;;;;;;;1.80;1.70;;;22.60;64.50;;;;;;5088763;28;43918;-69
2023/06/07 03:01:48;;;;;;;1.80;1.80;;;22.60;64.60;;;;;;5092575;27;45561;-69
2023/06/07 03:04:19;;;;;;;1.60;1.60;;;22.60;65.00;;;;;;5087628;27;45027;-70
2023/06/07 03:06:52;;;;;;;1.60;1.60;;;22.60;64.90;;;;;;5091797;28;44019;-70
2023/06/07 03:09:32;;;;;;;1.70;1.70;;;22.50;64.90;;;;;;5092938;28;43515;-70
2023/06/07 03:12:00;;;;;;;1.80;1.80;;;22.50;64.50;;;;;;5093287;27;43847;-71
2023/06/07 03:14:34;;;;;;;1.60;1.60;;;22.50;65.10;;;;;;5093204;27;44801;-70
2023/06/07 03:17:04;;;;;;;1.60;1.60;;;22.50;65.00;;;;;;5093981;27;43379;-70
2023/06/07 03:19:34;;;;;;;1.83;1.80;;;22.60;64.80;;;;;;5092561;28;43628;-70
2023/06/07 03:22:06;;;;;;;1.50;1.50;;;22.70;64.60;;;;;;5091619;28;45507;-70
2023/06/07 03:24:36;;;;;;;1.70;1.70;;;22.70;64.50;;;;;;5091867;28;45665;-70
2023/06/07 03:27:06;;;;;;;1.50;1.50;;;22.70;64.70;;;;;;5091401;27;43376;-70
2023/06/07 03:29:34;;;;;;;1.53;1.53;;;22.60;64.70;;;;;;5091540;27;43533;-69
2023/06/07 03:32:05;;;;;;;1.50;1.50;;;22.60;64.70;;;;;;5093135;27;44074;-70
2023/06/07 03:34:36;;;;;;;1.70;1.70;;;22.60;64.80;;;;;;5091814;28;44831;-70
2023/06/07 03:37:06;;;;;;;1.60;1.60;;;22.60;64.80;;;;;;5092346;28;43917;-69
2023/06/07 03:39:36;;;;;;;1.60;1.60;;;22.60;65.00;;;;;;5092513;28;43533;-69
2023/06/07 03:42:06;;;;;;;1.73;1.73;;;22.60;65.10;;;;;;5092728;27;46149;-70
2023/06/07 03:44:38;;;;;;;1.50;1.50;;;22.60;65.10;;;;;;5091735;28;44820;-69
2023/06/07 03:47:06;;;;;;;1.80;1.80;;;22.60;64.90;;;;;;5091690;28;43489;-70
2023/06/07 03:49:35;;;;;;;2.57;2.37;;;22.50;64.90;;;;;;5092167;28;43495;-69
2023/06/07 03:52:07;;;;;;;4.07;2.80;;;22.50;65.00;;;;;;5091870;28;43622;-69
2023/06/07 03:54:36;;;;;;;3.97;3.53;;;22.60;65.00;;;;;;5093968;27;44110;-69
2023/06/07 03:57:05;;;;;;;3.60;2.87;;;22.70;64.70;;;;;;5089203;27;43373;-69
2023/06/07 03:59:36;;;;;;;3.17;2.87;;;22.80;64.30;;;;;;5087147;27;43442;-69
2023/06/07 04:02:05;;;;;;;4.23;3.17;;;22.80;64.10;;;;;;5086584;28;46035;-69
2023/06/07 04:04:34;;;;;;;5.67;3.60;;;22.80;63.80;;;;;;5087268;28;44752;-69
2023/06/07 04:07:02;;;;;;;9.07;3.73;;;22.80;64.00;;;;;;5089844;27;44055;-70
2023/06/07 04:09:32;;;;;;;6.60;3.53;;;22.70;64.10;;;;;;5086488;28;43731;-74
2023/06/07 04:12:01;;;;;;;11.00;4.57;;;22.70;64.40;;;;;;5089887;27;43855;-69
2023/06/07 04:14:30;;;;;;;5.63;3.93;;;22.70;64.40;;;;;;5088777;28;44176;-69
2023/06/07 04:16:58;;;;;;;6.30;3.90;;;22.70;64.50;;;;;;5088732;28;43409;-69
2023/06/07 04:19:27;;;;;;;6.77;4.10;;;22.60;64.20;;;;;;5088918;28;44022;-69
2023/06/07 04:21:56;;;;;;;8.00;4.13;;;22.60;64.70;;;;;;5087855;28;45845;-71
2023/06/07 04:24:25;;;;;;;8.93;4.50;;;22.60;64.60;;;;;;5089679;28;43423;-69
2023/06/07 04:26:56;;;;;;;6.93;4.07;;;22.60;64.80;;;;;;5088169;28;43849;-69
2023/06/07 04:29:25;;;;;;;5.63;4.33;;;22.60;64.70;;;;;;5089733;27;43420;-71
2023/06/07 04:31:56;;;;;;;6.40;4.03;;;22.60;64.40;;;;;;5098607;27;46003;-70
2023/06/07 04:34:29;;;;;;;5.77;3.83;;;22.50;64.80;;;;;;5083646;28;44850;-70
2023/06/07 04:36:57;;;;;;;6.43;4.20;;;22.50;64.60;;;;;;5088129;28;43385;-69
2023/06/07 04:39:26;;;;;;;6.70;4.10;;;22.70;64.60;;;;;;5088404;28;43493;-69
2023/06/07 04:41:56;;;;;;;8.40;4.80;;;22.80;64.20;;;;;;5086109;28;44123;-69
2023/06/07 04:44:28;;;;;;;9.27;4.47;;;22.90;63.80;;;;;;5086714;28;44907;-70
2023/06/07 04:47:08;;;;;;;5.23;4.73;;;22.90;63.70;;;;;;5084557;28;43497;-69
2023/06/07 04:49:40;;;;;;;7.23;4.37;;;22.90;64.00;;;;;;5084828;28;43491;-70
2023/06/07 04:52:12;;;;;;;8.07;4.60;;;22.80;63.90;;;;;;5089149;27;43836;-69
2023/06/07 04:54:46;;;;;;;8.37;4.80;;;22.80;64.50;;;;;;5087516;28;44877;-69
2023/06/07 04:57:18;;;;;;;8.23;4.83;;;22.70;64.30;;;;;;5089906;27;43908;-69
2023/06/07 04:59:49;;;;;;;6.37;4.67;;;22.70;64.50;;;;;;5088058;28;44102;-69
2023/06/07 05:02:22;;;;;;;7.43;5.10;;;22.70;64.30;;;;;;5087464;27;44050;-70
2023/06/07 05:04:50;;;;;;;9.13;5.10;;;22.60;64.50;;;;;;5083545;28;43928;-70
2023/06/07 05:07:18;;;;;;;5.63;5.10;;;22.60;64.70;;;;;;5087863;27;43460;-70
2023/06/07 05:09:50;;;;;;;8.63;4.90;;;22.60;64.80;;;;;;5086395;27;43390;-70
2023/06/07 05:12:22;;;;;;;7.83;4.63;;;22.60;64.70;;;;;;5087330;28;43911;-70
2023/06/07 05:14:52;;;;;;;6.13;4.80;;;22.60;64.40;;;;;;5081764;28;45052;-70
2023/06/07 05:17:20;;;;;;;7.10;4.53;;;22.50;64.80;;;;;;5086845;28;44002;-71
2023/06/07 05:19:52;;;;;;;7.93;4.37;;;22.50;65.00;;;;;;5089995;27;43655;-70
2023/06/07 05:22:20;;;;;;;5.83;4.27;;;22.50;65.00;;;;;;5084373;28;45695;-70
2023/06/07 05:24:48;;;;;;;5.57;4.63;;;22.50;64.80;;;;;;5086810;28;44751;-70
2023/06/07 05:27:17;;;;;;;5.93;4.43;;;22.50;64.60;;;;;;5086209;28;43468;-70
2023/06/07 05:29:46;;;;;;;6.37;4.77;;;22.50;65.10;;;;;;5088427;27;43380;-70
2023/06/07 05:32:14;;;;;;;7.30;4.77;;;22.50;65.10;;;;;;5086857;28;45430;-70
2023/06/07 05:34:45;;;;;;;6.73;4.90;;;22.60;64.80;;;;;;5087060;27;43457;-70
2023/06/07 05:37:13;;;;;;;6.50;4.67;;;22.70;64.50;;;;;;5083669;28;43912;-70
2023/06/07 05:39:45;;;;;;;5.13;4.30;;;22.80;64.20;;;;;;5087359;28;43490;-70
2023/06/07 05:42:16;;;;;;;6.13;4.50;;;22.90;64.20;;;;;;5086740;28;45413;-70
2023/06/07 05:44:47;;;;;;;4.90;4.40;;;22.80;64.10;;;;;;5086836;28;44551;-70
2023/06/07 05:47:15;;;;;;;6.50;4.63;;;22.80;64.30;;;;;;5088656;27;43414;-70
2023/06/07 05:49:44;;;;;;;4.93;4.37;;;22.70;64.50;;;;;;5087087;28;43882;-70
2023/06/07 05:52:13;;;;;;;5.63;4.23;;;22.70;64.80;;;;;;5086574;27;45613;-70
2023/06/07 05:54:48;;;;;;;6.80;4.47;;;22.70;64.80;;;;;;5088981;27;44686;-70
2023/06/07 05:57:16;;;;;;;4.80;4.00;;;22.60;64.50;;;;;;5088295;28;43430;-70
2023/06/07 05:59:44;;;;;;;5.60;4.57;;;22.60;64.70;;;;;;5088585;28;43842;-70
2023/06/07 06:02:15;;;;;;;4.43;4.03;;;22.50;64.90;;;;;;5088677;27;43924;-70
2023/06/07 06:04:43;;;;;;;5.67;4.37;;;22.50;65.70;;;;;;5082062;27;43522;-70
2023/06/07 06:07:11;;;;;;;4.43;4.00;;;22.50;64.90;;;;;;5087969;27;43332;-70
2023/06/07 06:09:41;;;;;;;4.47;4.07;;;22.50;64.70;;;;;;5088518;27;43345;-70
2023/06/07 06:12:10;;;;;;;4.27;3.87;;;22.50;65.20;;;;;;5088092;27;43602;-70
2023/06/07 06:14:38;;;;;;;4.13;3.83;;;22.50;65.20;;;;;;5087791;28;43478;-70
2023/06/07 06:17:06;;;;;;;4.73;4.33;;;22.60;65.10;;;;;;5086806;27;43519;-70
2023/06/07 06:19:36;;;;;;;5.00;4.30;;;22.70;64.60;;;;;;5086933;28;43616;-70
2023/06/07 06:22:04;;;;;;;4.43;4.03;;;22.80;64.60;;;;;;5086086;27;44029;-70
2023/06/07 06:24:32;;;;;;;4.60;4.20;;;22.80;64.50;;;;;;5087388;28;43442;-70
2023/06/07 06:27:00;;;;;;;4.00;3.70;;;22.80;64.50;;;;;;5087966;27;43378;-72
2023/06/07 06:29:28;;;;;;;4.27;3.97;;;22.70;64.30;;;;;;5087895;27;43841;-70
2023/06/07 06:31:58;;;;;;;4.37;4.00;;;22.60;64.80;;;;;;5083034;28;43866;-69
2023/06/07 06:34:26;;;;;;;4.07;3.67;;;22.60;64.90;;;;;;5097833;27;45158;-69
2023/06/07 06:36:55;;;;;;;4.50;4.17;;;22.60;65.00;;;;;;5087724;27;43442;-70
2023/06/07 06:39:23;;;;;;;4.13;3.80;;;22.60;64.80;;;;;;5081771;28;43861;-70
2023/06/07 06:41:51;;;;;;;4.40;3.83;;;22.50;65.00;;;;;;5087515;28;43579;-70
2023/06/07 06:44:34;;;;;;;4.40;4.00;;;22.50;65.30;;;;;;5083176;28;45054;-70
2023/06/07 06:47:02;;;;;;;4.13;3.83;;;22.50;65.20;;;;;;5087255;27;43399;-71
2023/06/07 06:49:30;;;;;;;4.03;3.83;;;22.50;64.90;;;;;;5087938;27;43523;-69
2023/06/07 06:52:00;;;;;;;4.37;4.07;;;22.50;64.70;;;;;;5086783;27;43954;-70
2023/06/07 06:54:28;;;;;;;3.63;3.43;;;22.40;65.20;;;;;;5087730;27;43407;-70
2023/06/07 06:56:56;;;;;;;3.83;3.53;;;22.50;65.40;;;;;;5087449;27;43587;-70
2023/06/07 06:59:24;;;;;;;3.70;3.50;;;22.50;65.10;;;;;;5091959;27;43471;-70
2023/06/07 07:01:54;;;;;;;4.27;3.90;;;22.70;65.00;;;;;;5085624;28;46160;-70
2023/06/07 07:04:22;;;;;;;4.03;3.73;;;22.80;64.50;;;;;;5081413;27;43392;-70
2023/06/07 07:06:50;;;;;;;3.93;3.73;;;22.80;64.40;;;;;;5087404;27;43493;-69
2023/06/07 07:09:19;;;;;;;3.70;3.50;;;22.80;64.50;;;;;;5085536;28;43498;-69
2023/06/07 07:11:47;;;;;;;4.10;3.80;;;22.80;64.50;;;;;;5087097;28;43742;-69
2023/06/07 07:14:15;;;;;;;3.73;3.43;;;22.70;64.50;;;;;;5087249;28;43408;-69
2023/06/07 07:16:43;;;;;;;3.73;3.53;;;22.70;65.00;;;;;;5087503;27;43369;-69
2023/06/07 07:19:11;;;;;;;3.90;3.60;;;22.60;64.90;;;;;;5087018;27;43401;-69
2023/06/07 07:21:43;;;;;;;3.53;3.33;;;22.60;64.80;;;;;;5087035;27;43883;-69
2023/06/07 07:24:11;;;;;;;3.57;3.43;;;22.60;64.50;;;;;;5084953;28;44839;-69
2023/06/07 07:26:40;;;;;;;3.87;3.67;;;22.50;65.20;;;;;;5086725;27;43356;-71
2023/06/07 07:29:08;;;;;;;3.53;3.33;;;22.50;65.30;;;;;;5085816;28;43482;-70
2023/06/07 07:31:36;;;;;;;3.77;3.57;;;22.50;65.20;;;;;;5087110;27;43984;-71
2023/06/07 07:34:05;;;;;;;3.80;3.60;;;22.50;65.00;;;;;;5085180;28;44005;-70
2023/06/07 07:36:36;;;;;;;3.27;3.13;;;22.50;64.80;;;;;;5090261;28;43553;-70
2023/06/07 07:39:05;;;;;;;3.63;3.43;;;22.40;65.40;;;;;;5090780;28;43514;-70
2023/06/07 07:41:33;;;;;;;3.20;3.10;;;22.50;65.40;;;;;;5086609;28;45672;-72
2023/06/07 07:44:02;;;;;;;3.33;3.23;;;22.60;65.20;;;;;;5089795;27;43978;-70
2023/06/07 07:46:30;;;;;;;3.57;3.37;;;22.70;64.90;;;;;;5094260;27;44008;-71
2023/06/07 07:48:58;;;;;;;3.50;3.30;;;22.80;64.70;;;;;;5090481;27;43337;-70
2023/06/07 07:51:26;;;;;;;3.63;3.33;;;22.80;64.70;;;;;;5088417;28;46069;-70
2023/06/07 07:53:56;;;;;;;3.40;3.20;;;22.70;64.50;;;;;;5091825;27;43466;-70
2023/06/07 07:56:24;;;;;;;3.17;3.07;;;22.70;64.30;;;;;;5088857;28;43418;-70
2023/06/07 07:58:53;;;;;;;3.40;3.20;;;22.60;64.90;;;;;;5090295;27;43522;-70
2023/06/07 08:01:23;;;;;;;3.13;3.03;;;22.60;65.10;;;;;;5089894;28;43747;-70
2023/06/07 08:03:51;;;;;;;3.10;3.00;;;22.60;65.10;;;;;;5084106;28;43452;-70
2023/06/07 08:06:20;;;;;;;3.30;3.20;;;22.50;64.70;;;;;;5088292;27;43478;-70
2023/06/07 08:08:48;;;;;;;3.40;3.10;;;22.50;64.70;;;;;;5087399;27;43466;-70
2023/06/07 08:11:16;;;;;;;3.30;3.20;;;22.50;65.40;;;;;;5088351;28;45591;-70
2023/06/07 08:13:44;;;;;;;3.30;3.10;;;22.50;65.40;;;;;;5089820;27;43437;-70
2023/06/07 08:16:12;;;;;;;3.10;3.00;;;22.50;65.30;;;;;;5089602;27;43374;-70
2023/06/07 08:18:44;;;;;;;3.10;3.00;;;22.40;64.90;;;;;;5090404;27;43482;-70
2023/06/07 08:21:12;;;;;;;2.90;2.80;;;22.40;65.30;;;;;;5089478;27;43841;-70
2023/06/07 08:23:41;;;;;;;3.10;3.00;;;22.40;65.60;;;;;;5089304;27;43457;-70
2023/06/07 08:26:09;;;;;;;2.77;2.67;;;22.50;65.50;;;;;;5089574;28;43430;-70
2023/06/07 08:28:37;;;;;;;3.10;3.00;;;22.60;65.10;;;;;;5088378;28;43471;-71
2023/06/07 08:31:05;;;;;;;3.33;3.10;;;22.70;64.80;;;;;;5084082;28;45911;-71
2023/06/07 08:33:33;;;;;;;3.10;2.90;;;22.70;64.80;;;;;;5081387;28;43981;-72
2023/06/07 08:36:02;;;;;;;3.07;2.97;;;22.70;64.70;;;;;;5088312;28;43380;-70
2023/06/07 08:38:30;;;;;;;2.90;2.80;;;22.70;64.60;;;;;;5090127;28;44034;-70
2023/06/07 08:40:59;;;;;;;2.97;2.87;;;22.60;64.60;;;;;;5089724;27;43661;-70
2023/06/07 08:43:27;;;;;;;2.87;2.77;;;22.60;65.30;;;;;;5089383;27;43450;-70
2023/06/07 08:45:56;;;;;;;2.93;2.83;;;22.50;65.20;;;;;;5087141;28;43545;-73
2023/06/07 08:48:24;;;;;;;3.07;2.87;;;22.50;64.90;;;;;;5087639;28;43552;-70
2023/06/07 08:50:52;;;;;;;2.77;2.67;;;22.50;64.80;;;;;;5086495;27;45637;-70
2023/06/07 08:53:25;;;;;;;2.80;2.70;;;22.40;65.30;;;;;;5088542;28;43520;-70
2023/06/07 08:55:54;;;;;;;2.87;2.77;;;22.40;65.60;;;;;;5082872;28;43435;-70
2023/06/07 08:58:24;;;;;;;2.80;2.70;;;22.40;65.40;;;;;;5089564;28;43616;-70
2023/06/07 09:00:53;;;;;;;2.73;2.63;;;22.40;65.10;;;;;;5089050;28;43684;-70
2023/06/07 09:03:21;;;;;;;2.80;2.70;;;22.40;65.00;;;;;;5086597;27;43567;-71
2023/06/07 09:05:49;;;;;;;2.83;2.73;;;22.40;65.70;;;;;;5088775;28;43370;-70
2023/06/07 09:08:17;;;;;;;2.60;2.50;;;22.40;65.60;;;;;;5089418;27;43383;-70
2023/06/07 09:10:47;;;;;;;3.10;3.00;;;22.50;65.40;;;;;;5088916;27;43574;-70
2023/06/07 09:13:19;;;;;;;2.70;2.60;;;22.60;65.10;;;;;;5088685;28;43391;-70
2023/06/07 09:15:48;;;;;;;2.93;2.83;;;22.70;64.90;;;;;;5089151;27;43336;-70
2023/06/07 09:18:17;;;;;;;2.73;2.63;;;22.70;64.90;;;;;;5088799;28;43823;-70
2023/06/07 09:20:45;;;;;;;2.60;2.50;;;22.70;64.80;;;;;;5088493;27;43868;-70
2023/06/07 09:23:14;;;;;;;2.90;2.80;;;22.60;64.50;;;;;;5086544;28;43420;-70
2023/06/07 09:25:44;;;;;;;3.00;2.90;;;22.60;65.20;;;;;;5084802;28;43424;-70
2023/06/07 09:28:14;;;;;;;2.80;2.70;;;22.60;65.40;;;;;;5088491;27;43450;-70
2023/06/07 09:30:55;;;;;;;2.73;2.63;;;22.50;65.10;;;;;;5088700;27;43606;-69
2023/06/07 09:33:29;;;;;;;2.77;2.67;;;22.50;64.90;;;;;;5082612;28;43366;-70
2023/06/07 09:36:07;;;;;;;3.10;3.00;;;22.50;65.40;;;;;;5088226;27;43469;-70
2023/06/07 09:38:36;;;;;;;2.50;2.40;;;22.40;65.60;;;;;;5087105;27;43446;-70
2023/06/07 09:41:05;;;;;;;2.30;2.20;;;22.40;65.30;;;;;;5088335;28;43595;-70
2023/06/07 09:43:43;;;;;;;2.67;2.60;;;22.40;65.10;;;;;;5086795;28;44460;-70
2023/06/07 09:46:12;;;;;;;2.70;2.60;;;22.40;65.20;;;;;;5088200;27;43382;-70
2023/06/07 09:48:47;;;;;;;2.67;2.57;;;22.40;65.80;;;;;;5088901;27;43473;-70
2023/06/07 09:51:15;;;;;;;2.97;2.80;;;22.40;65.60;;;;;;5088087;27;43833;-69
2023/06/07 09:53:51;;;;;;;2.60;2.50;;;22.50;65.40;;;;;;5086467;28;44338;-69
2023/06/07 09:56:20;;;;;;;2.10;2.10;;;22.70;65.20;;;;;;5087105;27;43394;-69
2023/06/07 09:58:51;;;;;;;2.30;2.30;;;22.70;65.00;;;;;;5088816;27;43446;-69
2023/06/07 10:01:32;;;;;;;2.47;2.47;;;22.70;64.90;;;;;;5087963;27;43682;-70
2023/06/07 10:04:02;;;;;;;2.40;2.40;;;22.70;64.60;;;;;;5081163;28;43446;-69
2023/06/07 10:06:34;;;;;;;2.60;2.60;;;22.60;64.90;;;;;;5084661;28;43559;-69
2023/06/07 10:09:03;;;;;;;2.60;2.50;;;22.60;65.40;;;;;;5082623;28;43523;-71
2023/06/07 10:11:32;;;;;;;2.20;2.20;;;22.60;65.20;;;;;;5086697;27;45262;-70
2023/06/07 10:14:04;;;;;;;2.50;2.43;;;22.50;64.80;;;;;;5088951;27;44089;-70
2023/06/07 10:16:34;;;;;;;2.10;2.10;;;22.50;64.90;;;;;;5087743;27;44089;-70
2023/06/07 10:19:05;;;;;;;2.40;2.40;;;22.50;65.70;;;;;;5087128;28;43523;-69
2023/06/07 10:21:34;;;;;;;2.23;2.23;;;22.50;65.50;;;;;;5087827;28;44446;-69
2023/06/07 10:24:05;;;;;;;2.30;2.30;;;22.50;65.10;;;;;;5087403;28;43455;-70
2023/06/07 10:26:51;;;;;;;2.03;2.03;;;22.50;65.10;;;;;;5088026;27;43374;-70
2023/06/07 10:29:27;;;;;;;2.17;2.17;;;22.40;65.50;;;;;;5086405;27;43447;-70
2023/06/07 10:31:57;;;;;;;2.67;2.57;;;22.40;65.60;;;;;;5087756;28;43766;-70
2023/06/07 10:34:25;;;;;;;2.30;2.30;;;22.40;65.30;;;;;;5084311;27;43882;-70
2023/06/07 10:36:53;;;;;;;2.37;2.33;;;22.40;65.20;;;;;;5086319;28;43444;-70
2023/06/07 10:39:21;;;;;;;2.30;2.30;;;22.40;65.30;;;;;;5099765;27;43891;-70
2023/06/07 10:41:49;;;;;;;2.20;2.20;;;22.40;65.80;;;;;;5086090;28;45750;-72
2023/06/07 10:44:17;;;;;;;2.30;2.30;;;22.50;65.80;;;;;;5084673;28;44700;-73
2023/06/07 10:46:46;;;;;;;2.20;2.20;;;22.60;65.60;;;;;;5078735;28;43432;-70
2023/06/07 10:49:36;;;;;;;2.50;2.50;;;22.70;65.20;;;;;;5081391;28;43439;-70
2023/06/07 10:52:06;;;;;;;2.23;2.23;;;22.80;65.00;;;;;;5082761;28;46004;-70
2023/06/07 10:54:37;;;;;;;2.23;2.23;;;22.80;64.80;;;;;;5086387;27;43473;-70
2023/06/07 10:57:05;;;;;;;2.00;2.00;;;22.80;64.60;;;;;;5084793;28;43474;-70
2023/06/07 10:59:33;;;;;;;1.90;1.90;;;22.70;64.50;;;;;;5087535;27;43451;-71
2023/06/07 11:02:23;;;;;;;2.07;2.00;;;22.70;65.30;;;;;;5086274;27;45723;-71
2023/06/07 11:04:56;;;;;;;2.23;2.23;;;22.60;65.20;;;;;;5084302;28;43426;-70
2023/06/07 11:07:27;;;;;;;2.40;2.40;;;22.60;64.90;;;;;;5081381;27;43417;-70
2023/06/07 11:10:32;;;;;;;2.10;2.10;;;22.60;64.90;;;;;;5089851;28;44025;-70
2023/06/07 11:13:00;;;;;;;1.87;1.87;;;22.50;65.50;;;;;;5084183;28;43852;-70
2023/06/07 11:15:35;;;;;;;2.10;2.10;;;22.50;65.50;;;;;;5090437;27;43445;-71
2023/06/07 11:18:07;;;;;;;1.90;1.90;;;22.50;65.20;;;;;;5086779;28;43377;-69
2023/06/07 11:20:52;;;;;;;1.97;1.97;;;22.50;65.10;;;;;;5091225;27;43436;-70
2023/06/07 11:23:27;;;;;;;2.10;2.10;;;22.50;65.30;;;;;;5086240;27;44086;-69
2023/06/07 11:25:58;;;;;;;2.10;2.10;;;22.50;65.80;;;;;;5088487;28;43558;-69
2023/06/07 11:28:27;;;;;;;2.00;2.00;;;22.50;65.70;;;;;;5090537;28;43982;-69
2023/06/07 11:30:56;;;;;;;2.47;2.37;;;22.60;65.60;;;;;;5101103;27;43951;-69
2023/06/07 11:33:26;;;;;;;2.03;2.03;;;22.70;65.20;;;;;;5088489;28;45946;-69
2023/06/07 11:35:54;;;;;;;2.00;2.00;;;22.80;65.10;;;;;;5090136;27;43424;-73
2023/06/07 11:38:22;;;;;;;2.30;2.30;;;22.70;64.80;;;;;;5090973;27;43818;-70
2023/06/07 11:40:50;;;;;;;1.93;1.93;;;22.70;64.60;;;;;;5091452;27;43408;-70
2023/06/07 11:43:21;;;;;;;2.27;2.17;;;22.70;64.70;;;;;;5088943;28;45814;-70
2023/06/07 11:45:49;;;;;;;2.10;2.10;;;22.60;65.40;;;;;;5090051;27;43439;-70
2023/06/07 11:48:17;;;;;;;2.20;2.20;;;22.60;65.30;;;;;;5076550;28;43485;-70
2023/06/07 11:50:47;;;;;;;1.90;1.90;;;22.60;65.00;;;;;;5089846;28;44187;-70
2023/06/07 11:53:15;;;;;;;2.20;2.20;;;22.50;64.30;;;;;;5088506;28;46379;-70
2023/06/07 11:55:43;;;;;;;2.57;2.47;;;22.50;65.40;;;;;;5089582;28;43546;-71
2023/06/07 11:58:14;;;;;;;2.23;2.23;;;22.50;65.80;;;;;;5088458;28;43526;-71
2023/06/07 12:00:44;;;;;;;2.20;2.20;;;22.50;65.40;;;;;;5088646;27;43557;-70
2023/06/07 12:03:16;;;;;;;1.97;1.97;;;22.50;65.10;;;;;;5083733;27;43844;-71
2023/06/07 12:05:46;;;;;;;2.27;2.27;;;22.40;65.10;;;;;;5087785;28;45070;-70
2023/06/07 12:08:15;;;;;;;2.00;2.00;;;22.40;65.60;;;;;;5089852;28;43380;-71
2023/06/07 12:10:45;;;;;;;2.10;2.10;;;22.50;65.80;;;;;;5090075;27;43388;-71
2023/06/07 12:13:18;;;;;;;2.30;2.20;;;22.50;65.60;;;;;;5089429;27;43749;-70
2023/06/07 12:15:47;;;;;;;2.20;2.20;;;22.60;65.40;;;;;;5089360;27;43790;-70
2023/06/07 12:18:16;;;;;;;1.90;1.90;;;22.60;65.80;;;;;;5082421;27;43438;-70
2023/06/07 12:20:46;;;;;;;1.87;1.87;;;22.60;64.70;;;;;;5086908;28;43573;-70
2023/06/07 12:23:14;;;;;;;1.90;1.90;;;22.60;65.40;;;;;;5079689;28;45562;-70
2023/06/07 12:25:42;;;;;;;2.37;2.27;;;22.60;65.40;;;;;;5081786;28;44682;-70
2023/06/07 12:28:11;;;;;;;2.00;2.00;;;22.60;65.10;;;;;;5085354;27;43461;-71
2023/06/07 12:30:41;;;;;;;1.80;1.80;;;22.60;64.80;;;;;;5087966;28;43497;-71
2023/06/07 12:33:13;;;;;;;2.40;2.40;;;22.50;64.80;;;;;;5085431;28;43873;-71
2023/06/07 12:35:41;;;;;;;2.00;2.00;;;22.50;65.60;;;;;;5086896;28;44617;-71
2023/06/07 12:38:12;;;;;;;2.17;2.17;;;22.50;65.40;;;;;;5086558;28;43402;-71
2023/06/07 12:40:40;;;;;;;1.97;1.97;;;22.50;65.10;;;;;;5086128;27;43503;-71
2023/06/07 12:43:08;;;;;;;2.07;2.07;;;22.50;65.10;;;;;;5087023;28;43829;-70
2023/06/07 12:45:36;;;;;;;2.13;2.13;;;22.40;65.60;;;;;;5087281;28;44769;-69
2023/06/07 12:48:05;;;;;;;2.30;2.30;;;22.50;65.70;;;;;;5089044;28;43372;-70
2023/06/07 12:50:33;;;;;;;1.97;1.97;;;22.50;65.50;;;;;;5088656;27;44007;-71
2023/06/07 12:53:01;;;;;;;1.90;1.90;;;22.70;65.30;;;;;;5092695;28;45627;-70
2023/06/07 12:55:30;;;;;;;2.20;2.20;;;22.70;65.00;;;;;;5093761;27;43939;-70
2023/06/07 12:57:59;;;;;;;2.10;2.10;;;22.80;64.90;;;;;;5092126;28;43407;-70
2023/06/07 13:00:27;;;;;;;2.10;2.00;;;22.70;64.40;;;;;;5094283;27;43407;-70